sensor_id;sensor_type;location;lat;lon;timestamp;P1;durP1;ratioP1;P2;durP2;ratioP2
68633;SDS011;55625;47.072;22.192;2023-01-15T00:02:08;9.80;;;4.20;;
68633;SDS011;55625;47.072;22.192;2023-01-15T00:04:36;9.93;;;5.82;;
68633;SDS011;55625;47.072;22.192;2023-01-15T00:07:02;6.18;;;4.13;;
68633;SDS011;55625;47.072;22.192;2023-01-15T00:09:28;7.90;;;3.05;;
68633;SDS011;55625;47.072;22.192;2023-01-15T00:11:54;8.77;;;5.30;;
68633;SDS011;55625;47.072;22.192;2023-01-15T00:14:20;5.75;;;4.82;;
68633;SDS011;55625;47.072;22.192;2023-01-15T00:16:49;11.60;;;5.57;;
68633;SDS011;55625;47.072;22.192;2023-01-15T00:19:16;9.87;;;3.20;;
68633;SDS011;55625;47.072;22.192;2023-01-15T00:21:42;11.25;;;5.07;;
68633;SDS011;55625;47.072;22.192;2023-01-15T00:24:08;7.78;;;4.25;;
68633;SDS011;55625;47.072;22.192;2023-01-15T00:26:52;8.25;;;3.80;;
68633;SDS011;55625;47.072;22.192;2023-01-15T00:29:36;8.47;;;3.37;;
68633;SDS011;55625;47.072;22.192;2023-01-15T00:32:03;6.80;;;4.22;;
68633;SDS011;55625;47.072;22.192;2023-01-15T00:34:32;13.80;;;3.83;;
68633;SDS011;55625;47.072;22.192;2023-01-15T00:36:59;8.65;;;4.95;;
68633;SDS011;55625;47.072;22.192;2023-01-15T00:39:25;7.53;;;4.87;;
68633;SDS011;55625;47.072;22.192;2023-01-15T00:41:51;5.72;;;3.22;;
68633;SDS011;55625;47.072;22.192;2023-01-15T00:44:18;5.68;;;3.17;;
68633;SDS011;55625;47.072;22.192;2023-01-15T00:46:45;9.98;;;4.75;;
68633;SDS011;55625;47.072;22.192;2023-01-15T00:49:11;11.35;;;6.00;;
68633;SDS011;55625;47.072;22.192;2023-01-15T00:51:37;7.00;;;5.57;;
68633;SDS011;55625;47.072;22.192;2023-01-15T00:54:03;22.73;;;5.13;;
68633;SDS011;55625;47.072;22.192;2023-01-15T00:56:29;27.27;;;4.90;;
68633;SDS011;55625;47.072;22.192;2023-01-15T00:58:55;5.85;;;2.78;;
68633;SDS011;55625;47.072;22.192;2023-01-15T01:01:21;6.23;;;2.43;;
68633;SDS011;55625;47.072;22.192;2023-01-15T01:03:48;11.65;;;3.22;;
68633;SDS011;55625;47.072;22.192;2023-01-15T01:06:16;6.93;;;3.15;;
68633;SDS011;55625;47.072;22.192;2023-01-15T01:08:45;6.32;;;3.30;;
68633;SDS011;55625;47.072;22.192;2023-01-15T01:11:13;7.85;;;3.83;;
68633;SDS011;55625;47.072;22.192;2023-01-15T01:13:42;8.83;;;3.73;;
68633;SDS011;55625;47.072;22.192;2023-01-15T01:16:22;12.05;;;4.88;;
68633;SDS011;55625;47.072;22.192;2023-01-15T01:18:49;12.02;;;5.18;;
68633;SDS011;55625;47.072;22.192;2023-01-15T01:21:15;10.88;;;4.55;;
68633;SDS011;55625;47.072;22.192;2023-01-15T01:23:42;3.92;;;3.13;;
68633;SDS011;55625;47.072;22.192;2023-01-15T01:26:08;6.50;;;3.43;;
68633;SDS011;55625;47.072;22.192;2023-01-15T01:28:34;10.07;;;4.82;;
68633;SDS011;55625;47.072;22.192;2023-01-15T01:31:03;8.60;;;4.53;;
68633;SDS011;55625;47.072;22.192;2023-01-15T01:33:30;6.25;;;5.00;;
68633;SDS011;55625;47.072;22.192;2023-01-15T01:35:56;6.80;;;2.87;;
68633;SDS011;55625;47.072;22.192;2023-01-15T01:38:21;11.98;;;6.15;;
68633;SDS011;55625;47.072;22.192;2023-01-15T01:40:47;7.13;;;4.23;;
68633;SDS011;55625;47.072;22.192;2023-01-15T01:43:21;4.35;;;3.03;;
68633;SDS011;55625;47.072;22.192;2023-01-15T01:45:52;6.25;;;4.13;;
68633;SDS011;55625;47.072;22.192;2023-01-15T01:48:19;8.27;;;4.68;;
68633;SDS011;55625;47.072;22.192;2023-01-15T01:50:55;8.27;;;4.27;;
68633;SDS011;55625;47.072;22.192;2023-01-15T01:53:24;7.00;;;4.85;;
68633;SDS011;55625;47.072;22.192;2023-01-15T01:55:55;5.15;;;3.85;;
68633;SDS011;55625;47.072;22.192;2023-01-15T01:58:23;5.70;;;3.80;;
68633;SDS011;55625;47.072;22.192;2023-01-15T02:00:54;3.75;;;2.50;;
68633;SDS011;55625;47.072;22.192;2023-01-15T02:03:22;5.97;;;3.73;;
68633;SDS011;55625;47.072;22.192;2023-01-15T02:05:55;12.30;;;4.10;;
68633;SDS011;55625;47.072;22.192;2023-01-15T02:08:25;12.95;;;5.32;;
68633;SDS011;55625;47.072;22.192;2023-01-15T02:10:52;14.73;;;3.45;;
68633;SDS011;55625;47.072;22.192;2023-01-15T02:13:22;8.48;;;3.70;;
68633;SDS011;55625;47.072;22.192;2023-01-15T02:18:50;4.15;;;2.92;;
68633;SDS011;55625;47.072;22.192;2023-01-15T02:24:59;8.63;;;2.45;;
68633;SDS011;55625;47.072;22.192;2023-01-15T02:31:04;5.83;;;3.27;;
68633;SDS011;55625;47.072;22.192;2023-01-15T02:33:46;3.65;;;2.80;;
68633;SDS011;55625;47.072;22.192;2023-01-15T02:36:22;4.47;;;2.25;;
68633;SDS011;55625;47.072;22.192;2023-01-15T02:38:53;8.32;;;4.80;;
68633;SDS011;55625;47.072;22.192;2023-01-15T02:41:24;6.43;;;3.55;;
68633;SDS011;55625;47.072;22.192;2023-01-15T02:43:56;6.70;;;3.13;;
68633;SDS011;55625;47.072;22.192;2023-01-15T02:46:25;5.47;;;2.42;;
68633;SDS011;55625;47.072;22.192;2023-01-15T02:48:56;8.27;;;4.63;;
68633;SDS011;55625;47.072;22.192;2023-01-15T02:51:25;7.07;;;3.53;;
68633;SDS011;55625;47.072;22.192;2023-01-15T02:53:58;6.03;;;3.22;;
68633;SDS011;55625;47.072;22.192;2023-01-15T02:56:29;4.63;;;2.30;;
68633;SDS011;55625;47.072;22.192;2023-01-15T02:59:02;4.03;;;2.70;;
68633;SDS011;55625;47.072;22.192;2023-01-15T03:01:37;9.82;;;4.85;;
68633;SDS011;55625;47.072;22.192;2023-01-15T03:04:24;9.52;;;3.47;;
68633;SDS011;55625;47.072;22.192;2023-01-15T03:09:48;7.37;;;4.17;;
68633;SDS011;55625;47.072;22.192;2023-01-15T03:15:02;6.75;;;4.60;;
68633;SDS011;55625;47.072;22.192;2023-01-15T03:17:52;7.00;;;4.32;;
68633;SDS011;55625;47.072;22.192;2023-01-15T03:20:22;7.30;;;4.03;;
68633;SDS011;55625;47.072;22.192;2023-01-15T03:22:53;3.77;;;1.67;;
68633;SDS011;55625;47.072;22.192;2023-01-15T03:25:34;6.35;;;4.07;;
68633;SDS011;55625;47.072;22.192;2023-01-15T03:28:06;8.15;;;4.82;;
68633;SDS011;55625;47.072;22.192;2023-01-15T03:30:35;4.07;;;3.03;;
68633;SDS011;55625;47.072;22.192;2023-01-15T03:33:01;7.57;;;4.70;;
68633;SDS011;55625;47.072;22.192;2023-01-15T03:38:23;9.35;;;5.50;;
68633;SDS011;55625;47.072;22.192;2023-01-15T04:01:06;9.57;;;3.63;;
68633;SDS011;55625;47.072;22.192;2023-01-15T04:03:37;8.37;;;3.67;;
68633;SDS011;55625;47.072;22.192;2023-01-15T04:06:04;5.63;;;3.88;;
68633;SDS011;55625;47.072;22.192;2023-01-15T04:08:32;7.28;;;3.15;;
68633;SDS011;55625;47.072;22.192;2023-01-15T04:11:03;6.05;;;3.55;;
68633;SDS011;55625;47.072;22.192;2023-01-15T04:13:29;8.23;;;4.80;;
68633;SDS011;55625;47.072;22.192;2023-01-15T04:15:55;8.40;;;4.27;;
68633;SDS011;55625;47.072;22.192;2023-01-15T04:18:22;5.72;;;3.58;;
68633;SDS011;55625;47.072;22.192;2023-01-15T04:20:48;4.57;;;3.08;;
68633;SDS011;55625;47.072;22.192;2023-01-15T04:23:15;4.50;;;3.28;;
68633;SDS011;55625;47.072;22.192;2023-01-15T04:25:41;7.38;;;3.80;;
68633;SDS011;55625;47.072;22.192;2023-01-15T04:28:07;10.43;;;4.33;;
68633;SDS011;55625;47.072;22.192;2023-01-15T04:30:34;7.20;;;4.43;;
68633;SDS011;55625;47.072;22.192;2023-01-15T04:33:01;4.20;;;1.77;;
68633;SDS011;55625;47.072;22.192;2023-01-15T04:35:27;6.20;;;2.55;;
68633;SDS011;55625;47.072;22.192;2023-01-15T04:37:54;4.80;;;3.07;;
68633;SDS011;55625;47.072;22.192;2023-01-15T04:40:22;5.97;;;3.47;;
68633;SDS011;55625;47.072;22.192;2023-01-15T04:43:08;7.68;;;2.85;;
68633;SDS011;55625;47.072;22.192;2023-01-15T04:45:55;4.95;;;3.47;;
68633;SDS011;55625;47.072;22.192;2023-01-15T04:48:21;5.53;;;4.17;;
68633;SDS011;55625;47.072;22.192;2023-01-15T04:50:47;4.32;;;2.42;;
68633;SDS011;55625;47.072;22.192;2023-01-15T04:53:13;7.28;;;3.33;;
68633;SDS011;55625;47.072;22.192;2023-01-15T04:55:39;8.30;;;3.63;;
68633;SDS011;55625;47.072;22.192;2023-01-15T04:58:05;7.87;;;3.70;;
68633;SDS011;55625;47.072;22.192;2023-01-15T05:00:31;6.68;;;3.95;;
68633;SDS011;55625;47.072;22.192;2023-01-15T05:02:57;10.63;;;5.47;;
68633;SDS011;55625;47.072;22.192;2023-01-15T05:05:22;6.97;;;3.13;;
68633;SDS011;55625;47.072;22.192;2023-01-15T05:07:48;4.90;;;2.97;;
68633;SDS011;55625;47.072;22.192;2023-01-15T05:10:14;17.00;;;6.00;;
68633;SDS011;55625;47.072;22.192;2023-01-15T05:12:40;10.13;;;4.83;;
68633;SDS011;55625;47.072;22.192;2023-01-15T05:15:06;11.10;;;4.03;;
68633;SDS011;55625;47.072;22.192;2023-01-15T05:17:32;8.82;;;4.28;;
68633;SDS011;55625;47.072;22.192;2023-01-15T05:19:58;10.48;;;5.45;;
68633;SDS011;55625;47.072;22.192;2023-01-15T05:22:24;14.30;;;6.13;;
68633;SDS011;55625;47.072;22.192;2023-01-15T05:24:50;14.55;;;6.65;;
68633;SDS011;55625;47.072;22.192;2023-01-15T05:27:16;13.63;;;5.78;;
68633;SDS011;55625;47.072;22.192;2023-01-15T05:29:42;9.23;;;4.57;;
68633;SDS011;55625;47.072;22.192;2023-01-15T05:32:07;11.50;;;4.80;;
68633;SDS011;55625;47.072;22.192;2023-01-15T05:34:33;15.77;;;8.27;;
68633;SDS011;55625;47.072;22.192;2023-01-15T05:36:59;9.75;;;6.45;;
68633;SDS011;55625;47.072;22.192;2023-01-15T05:39:25;10.63;;;7.13;;
68633;SDS011;55625;47.072;22.192;2023-01-15T05:41:51;15.40;;;8.33;;
68633;SDS011;55625;47.072;22.192;2023-01-15T05:44:22;35.75;;;6.45;;
68633;SDS011;55625;47.072;22.192;2023-01-15T05:46:53;14.93;;;8.15;;
68633;SDS011;55625;47.072;22.192;2023-01-15T05:49:22;20.23;;;9.93;;
68633;SDS011;55625;47.072;22.192;2023-01-15T05:51:51;17.53;;;7.60;;
68633;SDS011;55625;47.072;22.192;2023-01-15T05:54:20;9.40;;;6.88;;
68633;SDS011;55625;47.072;22.192;2023-01-15T05:56:48;11.02;;;5.85;;
68633;SDS011;55625;47.072;22.192;2023-01-15T05:59:15;9.43;;;5.88;;
68633;SDS011;55625;47.072;22.192;2023-01-15T06:01:43;7.90;;;4.22;;
68633;SDS011;55625;47.072;22.192;2023-01-15T06:04:10;11.87;;;5.50;;
68633;SDS011;55625;47.072;22.192;2023-01-15T06:06:41;7.60;;;5.18;;
68633;SDS011;55625;47.072;22.192;2023-01-15T06:09:07;7.07;;;4.80;;
68633;SDS011;55625;47.072;22.192;2023-01-15T06:11:34;5.10;;;4.50;;
68633;SDS011;55625;47.072;22.192;2023-01-15T06:13:59;11.40;;;4.43;;
68633;SDS011;55625;47.072;22.192;2023-01-15T06:16:25;6.47;;;4.50;;
68633;SDS011;55625;47.072;22.192;2023-01-15T06:18:52;10.13;;;3.28;;
68633;SDS011;55625;47.072;22.192;2023-01-15T06:21:18;5.40;;;4.05;;
68633;SDS011;55625;47.072;22.192;2023-01-15T06:23:44;9.57;;;4.83;;
68633;SDS011;55625;47.072;22.192;2023-01-15T06:26:11;9.55;;;6.18;;
68633;SDS011;55625;47.072;22.192;2023-01-15T06:28:42;9.73;;;6.13;;
68633;SDS011;55625;47.072;22.192;2023-01-15T06:31:09;10.45;;;3.50;;
68633;SDS011;55625;47.072;22.192;2023-01-15T06:33:37;8.70;;;3.28;;
68633;SDS011;55625;47.072;22.192;2023-01-15T06:36:04;5.47;;;4.00;;
68633;SDS011;55625;47.072;22.192;2023-01-15T06:38:36;6.82;;;5.03;;
68633;SDS011;55625;47.072;22.192;2023-01-15T06:41:04;7.18;;;4.82;;
68633;SDS011;55625;47.072;22.192;2023-01-15T06:43:52;6.20;;;4.00;;
68633;SDS011;55625;47.072;22.192;2023-01-15T06:46:42;9.85;;;5.20;;
68633;SDS011;55625;47.072;22.192;2023-01-15T06:49:32;10.20;;;3.10;;
68633;SDS011;55625;47.072;22.192;2023-01-15T06:51:59;9.93;;;4.93;;
68633;SDS011;55625;47.072;22.192;2023-01-15T06:54:26;5.05;;;4.05;;
68633;SDS011;55625;47.072;22.192;2023-01-15T06:56:53;11.30;;;4.80;;
68633;SDS011;55625;47.072;22.192;2023-01-15T06:59:18;11.27;;;4.90;;
68633;SDS011;55625;47.072;22.192;2023-01-15T07:01:45;12.13;;;6.93;;
68633;SDS011;55625;47.072;22.192;2023-01-15T07:04:10;9.57;;;5.78;;
68633;SDS011;55625;47.072;22.192;2023-01-15T07:06:37;5.20;;;3.83;;
68633;SDS011;55625;47.072;22.192;2023-01-15T07:09:03;5.47;;;4.32;;
68633;SDS011;55625;47.072;22.192;2023-01-15T07:11:29;5.00;;;3.63;;
68633;SDS011;55625;47.072;22.192;2023-01-15T07:13:55;5.22;;;3.80;;
68633;SDS011;55625;47.072;22.192;2023-01-15T07:16:32;10.93;;;6.45;;
68633;SDS011;55625;47.072;22.192;2023-01-15T07:19:01;4.65;;;3.28;;
68633;SDS011;55625;47.072;22.192;2023-01-15T07:21:28;6.72;;;5.82;;
68633;SDS011;55625;47.072;22.192;2023-01-15T07:23:57;8.30;;;5.50;;
68633;SDS011;55625;47.072;22.192;2023-01-15T07:26:24;14.88;;;6.28;;
68633;SDS011;55625;47.072;22.192;2023-01-15T07:28:50;5.13;;;3.97;;
68633;SDS011;55625;47.072;22.192;2023-01-15T07:31:16;5.10;;;3.38;;
68633;SDS011;55625;47.072;22.192;2023-01-15T07:33:42;5.33;;;4.00;;
68633;SDS011;55625;47.072;22.192;2023-01-15T07:36:08;4.20;;;2.92;;
68633;SDS011;55625;47.072;22.192;2023-01-15T07:38:34;9.10;;;4.47;;
68633;SDS011;55625;47.072;22.192;2023-01-15T07:41:00;3.17;;;1.77;;
68633;SDS011;55625;47.072;22.192;2023-01-15T07:43:44;4.53;;;2.17;;
68633;SDS011;55625;47.072;22.192;2023-01-15T07:46:29;4.97;;;3.20;;
68633;SDS011;55625;47.072;22.192;2023-01-15T07:49:14;9.38;;;2.15;;
68633;SDS011;55625;47.072;22.192;2023-01-15T07:51:58;5.82;;;2.42;;
68633;SDS011;55625;47.072;22.192;2023-01-15T07:54:24;4.47;;;3.10;;
68633;SDS011;55625;47.072;22.192;2023-01-15T07:56:51;8.23;;;1.58;;
68633;SDS011;55625;47.072;22.192;2023-01-15T07:59:17;9.63;;;5.95;;
68633;SDS011;55625;47.072;22.192;2023-01-15T08:01:44;5.28;;;2.40;;
68633;SDS011;55625;47.072;22.192;2023-01-15T08:04:10;3.65;;;2.63;;
68633;SDS011;55625;47.072;22.192;2023-01-15T08:06:36;6.10;;;3.90;;
68633;SDS011;55625;47.072;22.192;2023-01-15T08:09:02;8.95;;;3.90;;
68633;SDS011;55625;47.072;22.192;2023-01-15T08:11:28;3.40;;;2.55;;
68633;SDS011;55625;47.072;22.192;2023-01-15T08:14:13;8.38;;;4.30;;
68633;SDS011;55625;47.072;22.192;2023-01-15T08:16:58;7.03;;;5.37;;
68633;SDS011;55625;47.072;22.192;2023-01-15T08:19:23;5.07;;;3.60;;
68633;SDS011;55625;47.072;22.192;2023-01-15T08:21:50;9.90;;;5.00;;
68633;SDS011;55625;47.072;22.192;2023-01-15T08:24:16;5.03;;;3.20;;
68633;SDS011;55625;47.072;22.192;2023-01-15T08:26:42;6.37;;;5.37;;
68633;SDS011;55625;47.072;22.192;2023-01-15T08:29:08;7.00;;;3.92;;
68633;SDS011;55625;47.072;22.192;2023-01-15T08:31:33;8.05;;;3.25;;
68633;SDS011;55625;47.072;22.192;2023-01-15T08:34:00;7.33;;;3.27;;
68633;SDS011;55625;47.072;22.192;2023-01-15T08:36:27;8.57;;;4.70;;
68633;SDS011;55625;47.072;22.192;2023-01-15T08:38:53;6.90;;;3.95;;
68633;SDS011;55625;47.072;22.192;2023-01-15T08:41:19;7.23;;;4.73;;
68633;SDS011;55625;47.072;22.192;2023-01-15T08:43:44;11.53;;;4.07;;
68633;SDS011;55625;47.072;22.192;2023-01-15T08:46:10;5.47;;;3.38;;
68633;SDS011;55625;47.072;22.192;2023-01-15T08:48:36;7.25;;;4.35;;
68633;SDS011;55625;47.072;22.192;2023-01-15T08:51:06;6.00;;;2.43;;
68633;SDS011;55625;47.072;22.192;2023-01-15T08:53:34;4.75;;;3.08;;
68633;SDS011;55625;47.072;22.192;2023-01-15T08:56:00;7.57;;;3.78;;
68633;SDS011;55625;47.072;22.192;2023-01-15T08:58:27;7.85;;;5.25;;
68633;SDS011;55625;47.072;22.192;2023-01-15T09:00:54;11.32;;;5.05;;
68633;SDS011;55625;47.072;22.192;2023-01-15T09:03:21;13.10;;;6.23;;
68633;SDS011;55625;47.072;22.192;2023-01-15T09:05:47;8.18;;;4.80;;
68633;SDS011;55625;47.072;22.192;2023-01-15T09:08:12;7.70;;;4.18;;
68633;SDS011;55625;47.072;22.192;2023-01-15T09:10:38;9.77;;;3.97;;
68633;SDS011;55625;47.072;22.192;2023-01-15T09:13:04;8.90;;;4.88;;
68633;SDS011;55625;47.072;22.192;2023-01-15T09:15:31;10.43;;;6.72;;
68633;SDS011;55625;47.072;22.192;2023-01-15T09:17:58;8.15;;;3.97;;
68633;SDS011;55625;47.072;22.192;2023-01-15T09:20:24;4.27;;;2.20;;
68633;SDS011;55625;47.072;22.192;2023-01-15T09:22:50;12.05;;;4.50;;
68633;SDS011;55625;47.072;22.192;2023-01-15T09:25:16;19.85;;;7.55;;
68633;SDS011;55625;47.072;22.192;2023-01-15T09:27:44;11.80;;;6.22;;
68633;SDS011;55625;47.072;22.192;2023-01-15T09:30:18;7.38;;;4.57;;
68633;SDS011;55625;47.072;22.192;2023-01-15T09:32:45;6.73;;;3.23;;
68633;SDS011;55625;47.072;22.192;2023-01-15T09:35:12;4.40;;;2.15;;
68633;SDS011;55625;47.072;22.192;2023-01-15T09:37:38;4.88;;;3.08;;
68633;SDS011;55625;47.072;22.192;2023-01-15T09:40:04;5.35;;;3.13;;
68633;SDS011;55625;47.072;22.192;2023-01-15T09:42:51;5.90;;;1.63;;
68633;SDS011;55625;47.072;22.192;2023-01-15T09:45:30;3.47;;;2.10;;
68633;SDS011;55625;47.072;22.192;2023-01-15T09:48:19;6.85;;;2.83;;
68633;SDS011;55625;47.072;22.192;2023-01-15T09:56:55;16.53;;;5.80;;
68633;SDS011;55625;47.072;22.192;2023-01-15T09:59:24;20.50;;;7.32;;
68633;SDS011;55625;47.072;22.192;2023-01-15T10:02:02;13.10;;;7.13;;
68633;SDS011;55625;47.072;22.192;2023-01-15T10:05:09;5.53;;;3.03;;
68633;SDS011;55625;47.072;22.192;2023-01-15T10:07:55;6.68;;;3.55;;
68633;SDS011;55625;47.072;22.192;2023-01-15T10:10:27;4.73;;;2.93;;
68633;SDS011;55625;47.072;22.192;2023-01-15T10:13:10;4.68;;;2.65;;
68633;SDS011;55625;47.072;22.192;2023-01-15T10:16:03;5.70;;;3.20;;
68633;SDS011;55625;47.072;22.192;2023-01-15T10:18:30;2.78;;;1.70;;
68633;SDS011;55625;47.072;22.192;2023-01-15T10:21:08;4.55;;;2.63;;
68633;SDS011;55625;47.072;22.192;2023-01-15T10:29:13;4.18;;;1.80;;
68633;SDS011;55625;47.072;22.192;2023-01-15T10:31:49;3.20;;;1.83;;
68633;SDS011;55625;47.072;22.192;2023-01-15T10:43:33;5.28;;;3.42;;
68633;SDS011;55625;47.072;22.192;2023-01-15T10:46:13;5.13;;;2.42;;
68633;SDS011;55625;47.072;22.192;2023-01-15T10:49:20;7.85;;;5.85;;
68633;SDS011;55625;47.072;22.192;2023-01-15T10:51:48;6.73;;;3.23;;
68633;SDS011;55625;47.072;22.192;2023-01-15T10:54:26;3.85;;;2.35;;
68633;SDS011;55625;47.072;22.192;2023-01-15T10:57:09;7.75;;;3.60;;
68633;SDS011;55625;47.072;22.192;2023-01-15T10:59:55;5.88;;;3.25;;
68633;SDS011;55625;47.072;22.192;2023-01-15T11:04:55;5.67;;;2.17;;
68633;SDS011;55625;47.072;22.192;2023-01-15T11:07:22;6.15;;;1.92;;
68633;SDS011;55625;47.072;22.192;2023-01-15T11:09:57;4.43;;;2.80;;
68633;SDS011;55625;47.072;22.192;2023-01-15T11:12:30;6.35;;;3.10;;
68633;SDS011;55625;47.072;22.192;2023-01-15T11:15:15;6.00;;;1.90;;
68633;SDS011;55625;47.072;22.192;2023-01-15T11:18:11;4.55;;;2.05;;
68633;SDS011;55625;47.072;22.192;2023-01-15T11:21:15;4.85;;;1.63;;
68633;SDS011;55625;47.072;22.192;2023-01-15T11:23:44;3.40;;;1.83;;
68633;SDS011;55625;47.072;22.192;2023-01-15T11:26:30;4.00;;;2.63;;
68633;SDS011;55625;47.072;22.192;2023-01-15T11:28:59;4.40;;;2.43;;
68633;SDS011;55625;47.072;22.192;2023-01-15T11:32:33;2.95;;;1.95;;
68633;SDS011;55625;47.072;22.192;2023-01-15T11:35:02;8.05;;;3.85;;
68633;SDS011;55625;47.072;22.192;2023-01-15T11:37:42;8.20;;;3.20;;
68633;SDS011;55625;47.072;22.192;2023-01-15T11:40:18;5.00;;;2.42;;
68633;SDS011;55625;47.072;22.192;2023-01-15T11:42:48;4.00;;;1.57;;
68633;SDS011;55625;47.072;22.192;2023-01-15T11:45:44;3.75;;;1.63;;
68633;SDS011;55625;47.072;22.192;2023-01-15T11:48:41;3.70;;;1.63;;
68633;SDS011;55625;47.072;22.192;2023-01-15T11:51:27;7.10;;;1.80;;
68633;SDS011;55625;47.072;22.192;2023-01-15T11:54:02;3.38;;;1.63;;
68633;SDS011;55625;47.072;22.192;2023-01-15T11:56:32;4.63;;;2.00;;
68633;SDS011;55625;47.072;22.192;2023-01-15T11:59:03;3.92;;;1.50;;
68633;SDS011;55625;47.072;22.192;2023-01-15T12:01:38;4.15;;;2.22;;
68633;SDS011;55625;47.072;22.192;2023-01-15T12:05:15;2.88;;;1.48;;
68633;SDS011;55625;47.072;22.192;2023-01-15T12:07:19;5.28;;;1.70;;
68633;SDS011;55625;47.072;22.192;2023-01-15T12:24:54;5.10;;;1.57;;
68633;SDS011;55625;47.072;22.192;2023-01-15T12:27:50;5.05;;;1.77;;
68633;SDS011;55625;47.072;22.192;2023-01-15T12:36:24;7.95;;;3.40;;
68633;SDS011;55625;47.072;22.192;2023-01-15T12:39:21;4.97;;;2.50;;
68633;SDS011;55625;47.072;22.192;2023-01-15T12:42:00;4.63;;;2.00;;
68633;SDS011;55625;47.072;22.192;2023-01-15T12:44:53;5.88;;;2.78;;
68633;SDS011;55625;47.072;22.192;2023-01-15T12:50:37;3.90;;;1.48;;
68633;SDS011;55625;47.072;22.192;2023-01-15T12:53:14;3.67;;;2.17;;
68633;SDS011;55625;47.072;22.192;2023-01-15T13:07:17;5.60;;;2.23;;
68633;SDS011;55625;47.072;22.192;2023-01-15T13:12:57;4.22;;;2.42;;
68633;SDS011;55625;47.072;22.192;2023-01-15T13:16:16;4.53;;;1.98;;
68633;SDS011;55625;47.072;22.192;2023-01-15T13:21:39;5.17;;;2.50;;
68633;SDS011;55625;47.072;22.192;2023-01-15T13:30:04;3.33;;;1.98;;
68633;SDS011;55625;47.072;22.192;2023-01-15T13:32:46;3.50;;;1.83;;
68633;SDS011;55625;47.072;22.192;2023-01-15T13:35:34;5.07;;;1.43;;
68633;SDS011;55625;47.072;22.192;2023-01-15T13:38:21;4.05;;;1.85;;
68633;SDS011;55625;47.072;22.192;2023-01-15T13:40:53;3.20;;;1.45;;
68633;SDS011;55625;47.072;22.192;2023-01-15T13:46:04;6.60;;;1.95;;
68633;SDS011;55625;47.072;22.192;2023-01-15T13:51:25;2.83;;;1.42;;
68633;SDS011;55625;47.072;22.192;2023-01-15T13:54:01;4.53;;;1.33;;
68633;SDS011;55625;47.072;22.192;2023-01-15T13:56:28;3.50;;;2.33;;
68633;SDS011;55625;47.072;22.192;2023-01-15T13:58:58;3.65;;;2.10;;
68633;SDS011;55625;47.072;22.192;2023-01-15T14:18:15;6.00;;;1.60;;
68633;SDS011;55625;47.072;22.192;2023-01-15T14:24:12;3.65;;;1.80;;
68633;SDS011;55625;47.072;22.192;2023-01-15T14:32:49;2.72;;;1.65;;
68633;SDS011;55625;47.072;22.192;2023-01-15T14:35:42;6.47;;;1.85;;
68633;SDS011;55625;47.072;22.192;2023-01-15T14:38:12;3.63;;;1.98;;
68633;SDS011;55625;47.072;22.192;2023-01-15T14:40:51;4.13;;;1.83;;
68633;SDS011;55625;47.072;22.192;2023-01-15T14:43:28;4.47;;;2.30;;
68633;SDS011;55625;47.072;22.192;2023-01-15T14:46:44;4.15;;;2.38;;
68633;SDS011;55625;47.072;22.192;2023-01-15T14:48:52;2.75;;;1.63;;
68633;SDS011;55625;47.072;22.192;2023-01-15T14:54:00;8.37;;;3.67;;
68633;SDS011;55625;47.072;22.192;2023-01-15T14:56:52;5.40;;;3.17;;
68633;SDS011;55625;47.072;22.192;2023-01-15T14:59:23;4.90;;;2.53;;
68633;SDS011;55625;47.072;22.192;2023-01-15T15:02:17;4.35;;;2.35;;
68633;SDS011;55625;47.072;22.192;2023-01-15T15:04:49;10.32;;;4.53;;
68633;SDS011;55625;47.072;22.192;2023-01-15T15:07:21;10.40;;;3.47;;
68633;SDS011;55625;47.072;22.192;2023-01-15T15:09:52;5.93;;;4.10;;
68633;SDS011;55625;47.072;22.192;2023-01-15T15:18:33;24.77;;;4.55;;
68633;SDS011;55625;47.072;22.192;2023-01-15T15:26:30;14.20;;;6.10;;
68633;SDS011;55625;47.072;22.192;2023-01-15T15:29:04;32.55;;;15.20;;
68633;SDS011;55625;47.072;22.192;2023-01-15T15:37:02;21.25;;;10.45;;
68633;SDS011;55625;47.072;22.192;2023-01-15T15:39:44;11.75;;;7.53;;
68633;SDS011;55625;47.072;22.192;2023-01-15T15:42:19;16.20;;;6.38;;
68633;SDS011;55625;47.072;22.192;2023-01-15T15:45:24;19.02;;;9.80;;
68633;SDS011;55625;47.072;22.192;2023-01-15T15:48:13;25.13;;;9.63;;
68633;SDS011;55625;47.072;22.192;2023-01-15T15:56:46;23.13;;;10.65;;
68633;SDS011;55625;47.072;22.192;2023-01-15T15:59:25;27.67;;;13.30;;
68633;SDS011;55625;47.072;22.192;2023-01-15T16:02:21;29.67;;;11.10;;
68633;SDS011;55625;47.072;22.192;2023-01-15T16:04:56;32.22;;;11.38;;
68633;SDS011;55625;47.072;22.192;2023-01-15T16:07:27;27.90;;;12.40;;
68633;SDS011;55625;47.072;22.192;2023-01-15T16:10:13;30.65;;;12.68;;
68633;SDS011;55625;47.072;22.192;2023-01-15T16:12:53;35.78;;;12.32;;
68633;SDS011;55625;47.072;22.192;2023-01-15T16:15:23;30.17;;;12.77;;
68633;SDS011;55625;47.072;22.192;2023-01-15T16:17:54;32.72;;;13.57;;
68633;SDS011;55625;47.072;22.192;2023-01-15T16:20:22;18.23;;;10.00;;
68633;SDS011;55625;47.072;22.192;2023-01-15T16:22:56;28.17;;;12.38;;
68633;SDS011;55625;47.072;22.192;2023-01-15T16:28:05;19.30;;;8.33;;
68633;SDS011;55625;47.072;22.192;2023-01-15T16:30:53;22.13;;;9.48;;
68633;SDS011;55625;47.072;22.192;2023-01-15T16:33:23;16.15;;;10.98;;
68633;SDS011;55625;47.072;22.192;2023-01-15T16:35:56;18.52;;;9.50;;
68633;SDS011;55625;47.072;22.192;2023-01-15T16:38:24;20.70;;;10.00;;
68633;SDS011;55625;47.072;22.192;2023-01-15T16:40:50;15.83;;;8.53;;
68633;SDS011;55625;47.072;22.192;2023-01-15T16:43:22;15.77;;;8.18;;
68633;SDS011;55625;47.072;22.192;2023-01-15T16:48:35;18.38;;;10.27;;
68633;SDS011;55625;47.072;22.192;2023-01-15T16:51:21;18.67;;;9.85;;
68633;SDS011;55625;47.072;22.192;2023-01-15T16:54:00;18.80;;;9.83;;
68633;SDS011;55625;47.072;22.192;2023-01-15T16:58:59;16.08;;;8.63;;
68633;SDS011;55625;47.072;22.192;2023-01-15T17:01:31;17.92;;;13.48;;
68633;SDS011;55625;47.072;22.192;2023-01-15T17:09:31;41.97;;;23.05;;
68633;SDS011;55625;47.072;22.192;2023-01-15T17:12:02;60.50;;;23.27;;
68633;SDS011;55625;47.072;22.192;2023-01-15T17:14:33;42.47;;;25.40;;
68633;SDS011;55625;47.072;22.192;2023-01-15T17:17:15;42.30;;;26.83;;
68633;SDS011;55625;47.072;22.192;2023-01-15T17:19:53;27.52;;;14.95;;
68633;SDS011;55625;47.072;22.192;2023-01-15T17:22:24;33.80;;;21.90;;
68633;SDS011;55625;47.072;22.192;2023-01-15T17:24:57;29.40;;;19.65;;
68633;SDS011;55625;47.072;22.192;2023-01-15T17:27:25;29.27;;;16.20;;
68633;SDS011;55625;47.072;22.192;2023-01-15T17:29:53;20.90;;;10.15;;
68633;SDS011;55625;47.072;22.192;2023-01-15T17:32:21;13.75;;;8.00;;
68633;SDS011;55625;47.072;22.192;2023-01-15T17:35:04;12.23;;;8.05;;
68633;SDS011;55625;47.072;22.192;2023-01-15T17:37:31;12.70;;;8.60;;
68633;SDS011;55625;47.072;22.192;2023-01-15T17:39:57;15.97;;;11.27;;
68633;SDS011;55625;47.072;22.192;2023-01-15T17:42:23;20.50;;;10.00;;
68633;SDS011;55625;47.072;22.192;2023-01-15T17:44:49;17.23;;;10.00;;
68633;SDS011;55625;47.072;22.192;2023-01-15T17:47:14;25.30;;;12.45;;
68633;SDS011;55625;47.072;22.192;2023-01-15T17:49:40;23.20;;;16.07;;
68633;SDS011;55625;47.072;22.192;2023-01-15T17:52:07;32.60;;;14.13;;
68633;SDS011;55625;47.072;22.192;2023-01-15T17:54:42;30.55;;;14.10;;
68633;SDS011;55625;47.072;22.192;2023-01-15T17:57:27;23.40;;;12.90;;
68633;SDS011;55625;47.072;22.192;2023-01-15T18:00:12;9.43;;;8.32;;